Terminal Aerodrome Forecast
Issued by NWS

Home | Current Version | Previous Version | Text Only | Print | Product List | Glossary On
Versions: 1 2 3 4 5 6 7 8 9 10 11 12 13 14 15 16 17 18 19 20 21 22 23 24 25
081
FTPQ31 PGUM 111727
TAFGUM
TAF

TAF
PTRO 111727Z 1118/1218 06010KT P6SM VCSH SCT016 BKN100
      TEMPO 1118/1122 -SHRA BKN016
     FM120000 06012G22KT P6SM VCSH SCT016 SCT100=

USA.gov is the U.S. government's official web portal to all federal, state and local government web resources and services.